Terminal Aerodrome Forecast
Issued by NWS

Home | Current Version | Previous Version | Text Only | Print | Product List | Glossary On
Versions: 1 2 3 4 5 6 7 8 9 10 11 12 13 14 15 16 17 18 19 20
000
FTUS46 KMTR 201700
TAFOAK
TAF
KOAK 201720Z 2018/2124 28010KT P6SM SCT020 BKN025
      TEMPO 2018/2019 3SM -RA BR BKN015
     FM202000 28012KT P6SM SCT025 BKN035
     FM210400 28008KT P6SM SCT020
     FM211000 VRB04KT P6SM FEW015
     FM212100 29012KT P6SM SKC=

USA.gov is the U.S. government's official web portal to all federal, state and local government web resources and services.